KRYY/RYY METAR and TAF weather

Enter ICAO airport designator
Station Type Date Time Source
KRYY METAR 2020/07/15 00:50 UTC NOAA

KRYY 150050Z 00000KT 10SM CLR 31/19 A3003 RMK AO2 SLP889 T03060189 PNO $


Station Type Date Time Source
KRYY Decoded METAR 2020/07/15 00:50 UTC NOAA

Marietta, Cobb County-McCollum Field Airport, GA, United States (KRYY) 34-00-47N 084-35-55W
Jul 14, 2020 - 08:50 PM EDT / 2020.07.15 0050 UTC
Wind: Calm:0
Visibility: 10 mile(s):0
Sky conditions: clear
Temperature: 87.1 F (30.6 C)
Dew Point: 66.0 F (18.9 C)
Relative Humidity: 49%
Pressure (altimeter): 30.03 in. Hg (1016 hPa)
ob: KRYY 150050Z 00000KT 10SM CLR 31/19 A3003 RMK AO2 SLP889 T03060189 PNO
cycle: 1

Station Type Date Time Source
KRYY TAF 2020/07/14 18:33 UTC NOAA

TAF KRYY 141729Z 1418/1518 26005KT P6SM SCT050
FM150200 VRB03KT P6SM FEW250
FM151500 14003KT P6SM FEW040

Example: see airport list